createdAt,value
2019-02-26T00:01:18.537Z,95231.55
2019-02-26T00:03:53.420Z,95234.82
2019-02-26T00:06:23.375Z,95235.91
2019-02-26T00:09:03.747Z,95240.55
2019-02-26T00:11:41.838Z,95245.16
2019-02-26T00:14:13.135Z,95235.80
2019-02-26T00:16:42.429Z,95237.97
2019-02-26T00:19:18.049Z,95248.78
2019-02-26T00:21:47.921Z,95239.47
2019-02-26T00:24:16.797Z,95247.09
2019-02-26T00:26:58.603Z,95253.42
2019-02-26T00:29:46.453Z,95255.09
2019-02-26T00:32:25.764Z,95245.69
2019-02-26T00:37:55.866Z,95243.81
2019-02-26T00:40:24.127Z,95251.83
2019-02-26T00:43:04.773Z,95248.05
2019-02-26T00:45:34.024Z,95246.24
2019-02-26T00:48:09.666Z,95249.61
2019-02-26T00:53:59.741Z,95238.81
2019-02-26T00:56:36.340Z,95240.76
2019-02-26T00:59:14.612Z,95239.91
2019-02-26T01:01:46.002Z,95241.94
2019-02-26T01:04:19.529Z,95229.95
2019-02-26T01:10:18.163Z,95236.52
2019-02-26T01:12:52.357Z,95229.68
2019-02-26T01:15:32.411Z,95227.38
2019-02-26T01:18:01.457Z,95231.46
2019-02-26T01:20:36.598Z,95227.25
2019-02-26T01:26:36.996Z,95219.17
2019-02-26T01:32:08.891Z,95217.23
2019-02-26T01:34:47.827Z,95210.05
2019-02-26T01:40:45.639Z,95207.11
2019-02-26T01:43:19.031Z,95205.97
2019-02-26T01:45:48.624Z,95205.63
2019-02-26T01:48:27.150Z,95204.64
2019-02-26T01:50:57.472Z,95189.80
2019-02-26T01:53:32.719Z,95188.35
2019-02-26T01:56:04.599Z,95183.98
2019-02-26T01:59:19.009Z,95180.27
2019-02-26T02:04:57.166Z,95172.12
2019-02-26T02:07:25.967Z,95163.33
2019-02-26T02:13:07.086Z,95156.88
2019-02-26T02:15:44.423Z,95154.98
2019-02-26T02:18:25.343Z,95158.41
2019-02-26T02:21:00.401Z,95156.16
2019-02-26T02:23:30.239Z,95157.77
2019-02-26T02:26:07.113Z,95159.41
2019-02-26T02:28:41.505Z,95166.55
2019-02-26T02:31:52.155Z,95163.32
2019-02-26T02:34:29.445Z,95160.89
2019-02-26T02:40:04.961Z,95143.41
2019-02-26T02:42:34.905Z,95137.08
2019-02-26T02:45:17.048Z,95139.27
2019-02-26T02:47:43.885Z,95140.61
2019-02-26T02:50:15.337Z,95134.52
2019-02-26T02:52:50.954Z,95136.80
2019-02-26T02:55:25.326Z,95139.59
2019-02-26T03:01:16.506Z,95141.31
2019-02-26T03:03:56.444Z,95145.51
2019-02-26T03:06:32.606Z,95140.05
2019-02-26T03:09:43.196Z,95139.61
2019-02-26T03:12:32.454Z,95136.22
2019-02-26T03:15:02.465Z,95129.00
2019-02-26T03:17:31.447Z,95130.34
2019-02-26T03:20:19.175Z,95128.56
2019-02-26T03:25:49.872Z,95133.88
2019-02-26T03:28:23.895Z,95137.09
2019-02-26T03:31:11.421Z,95137.95
2019-02-26T03:33:39.325Z,95138.36
2019-02-26T03:36:08.559Z,95125.42
2019-02-26T03:38:44.030Z,95131.97
2019-02-26T03:44:03.413Z,95125.78
2019-02-26T03:47:19.514Z,95129.56
2019-02-26T03:49:48.475Z,95137.22
2019-02-26T03:52:16.813Z,95132.66
2019-02-26T03:54:47.393Z,95125.50
2019-02-26T03:57:22.738Z,95123.36
2019-02-26T03:59:51.585Z,95121.97
2019-02-26T04:02:20.923Z,95121.58
2019-02-26T04:05:00.768Z,95120.81
2019-02-26T04:08:22.099Z,95114.58
2019-02-26T04:11:07.965Z,95114.97
2019-02-26T04:13:36.195Z,95114.99
2019-02-26T04:16:04.708Z,95113.52
2019-02-26T04:18:34.752Z,95107.84
2019-02-26T04:21:05.929Z,95109.80
2019-02-26T04:23:42.119Z,95108.81
2019-02-26T04:26:44.070Z,95108.89
2019-02-26T04:29:50.376Z,95103.77
2019-02-26T04:32:57.029Z,95100.89
2019-02-26T04:36:03.722Z,95094.58
2019-02-26T04:39:08.407Z,95088.77
2019-02-26T04:42:21.591Z,95091.56
2019-02-26T04:45:28.201Z,95084.30
2019-02-26T04:51:39.110Z,95077.83
2019-02-26T04:54:17.492Z,95089.53
2019-02-26T04:57:30.228Z,95089.12
2019-02-26T05:00:01.051Z,95090.47
2019-02-26T05:02:29.086Z,95077.36
2019-02-26T05:04:57.378Z,95076.09
2019-02-26T05:07:25.349Z,95073.66
2019-02-26T05:10:12.563Z,95077.10
2019-02-26T05:12:40.735Z,95076.75
2019-02-26T05:15:13.967Z,95074.53
2019-02-26T05:17:46.220Z,95074.12
2019-02-26T05:20:16.558Z,95068.92
2019-02-26T05:22:52.024Z,95070.97
2019-02-26T05:25:21.481Z,95059.10
2019-02-26T05:27:50.930Z,95061.19
2019-02-26T05:30:26.654Z,95055.66
2019-02-26T05:32:57.960Z,95054.31
2019-02-26T05:38:54.058Z,95056.67
2019-02-26T05:41:21.808Z,95054.79
2019-02-26T05:43:55.257Z,95051.61
2019-02-26T05:46:29.377Z,95057.39
2019-02-26T05:49:05.519Z,95057.83
2019-02-26T05:51:39.265Z,95064.48
2019-02-26T06:00:08.327Z,95070.27
2019-02-26T06:02:47.295Z,95069.44
2019-02-26T06:05:32.356Z,95069.33
2019-02-26T06:08:00.665Z,95059.98
2019-02-26T06:13:32.441Z,95069.89
2019-02-26T06:16:07.664Z,95070.63
2019-02-26T06:18:46.509Z,95083.23
2019-02-26T06:24:22.762Z,95079.54
2019-02-26T06:26:56.771Z,95078.89
2019-02-26T06:29:37.416Z,95078.27
2019-02-26T06:32:27.430Z,95075.64
2019-02-26T06:35:01.312Z,95079.70
2019-02-26T06:37:31.339Z,95080.71
2019-02-26T06:40:00.654Z,95079.70
2019-02-26T06:43:19.707Z,95079.45
2019-02-26T06:45:47.970Z,95076.59
2019-02-26T06:48:19.331Z,95083.48
2019-02-26T06:50:55.652Z,95078.50
2019-02-26T06:53:30.105Z,95078.16
2019-02-26T06:55:58.565Z,95079.92
2019-02-26T06:58:40.579Z,95076.63
2019-02-26T07:01:28.233Z,95081.97
2019-02-26T07:03:56.842Z,95083.64
2019-02-26T07:06:34.823Z,95081.93
2019-02-26T07:09:15.268Z,95084.37
2019-02-26T07:11:50.246Z,95091.45
2019-02-26T07:14:18.926Z,95100.44
2019-02-26T07:16:46.851Z,95096.83
2019-02-26T07:19:16.603Z,95100.01
2019-02-26T07:21:53.048Z,95101.44
2019-02-26T07:24:23.047Z,95110.34
2019-02-26T07:30:15.269Z,95131.97
2019-02-26T07:32:45.523Z,95128.16
2019-02-26T07:35:19.434Z,95132.67
2019-02-26T07:37:47.721Z,95131.25
2019-02-26T07:40:16.366Z,95131.95
2019-02-26T07:45:54.747Z,95134.59
2019-02-26T07:48:23.813Z,95134.84
2019-02-26T07:50:58.670Z,95132.45
2019-02-26T07:53:26.947Z,95128.66
2019-02-26T07:55:56.870Z,95127.16
2019-02-26T07:58:33.290Z,95114.73
2019-02-26T08:01:08.816Z,95116.58
2019-02-26T08:06:38.536Z,95122.23
2019-02-26T08:09:16.478Z,95129.84
2019-02-26T08:11:46.942Z,95135.84
2019-02-26T08:15:05.673Z,95137.18
2019-02-26T08:21:02.473Z,95139.98
2019-02-26T08:23:36.958Z,95143.98
2019-02-26T08:26:05.127Z,95142.50
2019-02-26T08:28:33.796Z,95132.97
2019-02-26T08:31:02.377Z,95124.70
2019-02-26T08:33:30.648Z,95126.62
2019-02-26T08:35:58.906Z,95120.87
2019-02-26T08:38:30.037Z,95118.92
2019-02-26T08:41:04.070Z,95113.22
2019-02-26T08:44:12.700Z,95113.89
2019-02-26T08:50:01.925Z,95108.27
2019-02-26T08:52:41.019Z,95115.19
2019-02-26T08:55:24.385Z,95107.28
2019-02-26T09:00:49.816Z,95115.63
2019-02-26T09:04:00.650Z,95115.72
2019-02-26T09:06:38.744Z,95107.80
2019-02-26T09:09:48.125Z,95111.78
2019-02-26T09:12:24.722Z,95110.17
2019-02-26T09:15:00.448Z,95107.73
2019-02-26T09:17:30.477Z,95103.06
2019-02-26T09:20:47.354Z,95100.87
2019-02-26T09:29:19.522Z,95097.89
2019-02-26T09:38:00.110Z,95098.03
2019-02-26T09:40:26.644Z,95093.54
2019-02-26T09:42:58.202Z,95092.93
2019-02-26T09:49:10.504Z,95081.88
2019-02-26T09:57:22.815Z,95065.99
2019-02-26T09:59:58.186Z,95063.20
2019-02-26T10:02:32.396Z,95071.03
2019-02-26T10:05:00.283Z,95066.38
2019-02-26T10:07:30.675Z,95076.35
2019-02-26T10:10:06.518Z,95074.55
2019-02-26T10:12:41.619Z,95079.83
2019-02-26T10:15:22.142Z,95079.94
2019-02-26T10:17:49.954Z,95088.08
2019-02-26T10:20:58.971Z,95083.22
2019-02-26T10:23:29.087Z,95083.70
2019-02-26T10:26:44.215Z,95089.59
2019-02-26T10:29:45.090Z,95086.19
2019-02-26T10:35:33.307Z,95082.98
2019-02-26T10:38:00.437Z,95082.67
2019-02-26T10:46:32.122Z,95078.86
2019-02-26T10:49:09.809Z,95083.03
2019-02-26T10:51:42.402Z,95090.09
2019-02-26T10:54:17.947Z,95082.31
2019-02-26T10:56:45.138Z,95075.95
2019-02-26T10:59:32.723Z,95077.78
2019-02-26T11:02:03.054Z,95078.02
2019-02-26T11:04:52.708Z,95069.42
2019-02-26T11:10:43.977Z,95063.05
2019-02-26T11:13:18.212Z,95056.56
2019-02-26T11:16:05.319Z,95058.07
2019-02-26T11:21:57.607Z,95061.06
2019-02-26T11:24:33.496Z,95062.09
2019-02-26T11:27:00.799Z,95060.11
2019-02-26T11:35:39.651Z,95051.95
2019-02-26T11:38:16.926Z,95051.98
2019-02-26T11:44:07.545Z,95052.24
2019-02-26T11:46:46.747Z,95054.93
2019-02-26T11:49:37.016Z,95055.72
2019-02-26T11:52:12.535Z,95050.55
2019-02-26T11:57:45.158Z,95050.98
2019-02-26T12:01:00.766Z,95053.83
2019-02-26T12:03:32.760Z,95052.88
2019-02-26T12:09:40.782Z,95029.70
2019-02-26T12:12:16.144Z,95029.70
2019-02-26T12:14:46.670Z,95032.23
2019-02-26T12:21:05.384Z,95026.80
2019-02-26T12:26:52.850Z,95024.98
2019-02-26T12:29:34.772Z,95031.34
2019-02-26T12:35:14.749Z,95020.97
2019-02-26T12:38:22.980Z,95021.48
2019-02-26T12:40:53.411Z,95021.88
2019-02-26T12:43:30.154Z,95020.66
2019-02-26T12:52:09.114Z,94998.03
2019-02-26T12:55:17.327Z,95002.63
2019-02-26T12:57:47.136Z,94992.63
2019-02-26T13:03:19.836Z,94986.53
2019-02-26T13:05:55.864Z,94992.69
2019-02-26T13:08:24.386Z,94981.06
2019-02-26T13:11:14.016Z,94973.06
2019-02-26T13:17:08.608Z,94979.02
2019-02-26T13:19:58.889Z,94979.35
2019-02-26T13:22:35.394Z,94984.59
2019-02-26T13:28:05.507Z,94970.98
2019-02-26T13:33:37.462Z,94972.80
2019-02-26T13:36:04.825Z,94969.20
2019-02-26T13:38:44.707Z,94976.90
2019-02-26T13:41:38.338Z,94969.95
2019-02-26T13:44:32.932Z,94970.58
2019-02-26T13:47:01.213Z,94970.63
2019-02-26T13:50:09.801Z,94966.64
2019-02-26T13:52:38.104Z,94965.35
2019-02-26T13:55:46.896Z,94966.73
2019-02-26T13:58:15.250Z,94962.00
2019-02-26T14:01:23.835Z,94964.13
2019-02-26T14:03:52.533Z,94964.45
2019-02-26T14:07:01.202Z,94957.73
2019-02-26T14:09:48.446Z,94962.36
2019-02-26T14:13:05.008Z,94954.01
2019-02-26T14:18:53.628Z,94948.89
2019-02-26T14:22:01.867Z,94942.44
2019-02-26T14:27:31.344Z,94934.38
2019-02-26T14:33:42.065Z,94933.06
2019-02-26T14:36:10.003Z,94938.59
2019-02-26T14:38:38.485Z,94935.84
2019-02-26T14:41:07.075Z,94926.89
2019-02-26T14:43:35.922Z,94918.31
2019-02-26T14:46:04.584Z,94922.83
2019-02-26T14:51:34.961Z,94910.97
2019-02-26T14:54:03.181Z,94907.66
2019-02-26T14:56:31.830Z,94906.06
2019-02-26T14:59:00.148Z,94901.22
2019-02-26T15:01:28.613Z,94893.08
2019-02-26T15:06:58.414Z,94882.02
2019-02-26T15:09:27.169Z,94881.84
2019-02-26T15:12:06.719Z,94878.69
2019-02-26T15:15:06.874Z,94877.75
2019-02-26T15:17:34.832Z,94875.92
2019-02-26T15:20:03.424Z,94871.45
2019-02-26T15:22:31.710Z,94868.36
2019-02-26T15:25:00.332Z,94873.09
2019-02-26T15:27:35.969Z,94871.72
2019-02-26T15:30:46.038Z,94874.75
2019-02-26T15:33:14.714Z,94869.03
2019-02-26T15:36:02.001Z,94868.02
2019-02-26T15:38:30.897Z,94876.16
2019-02-26T15:41:39.185Z,94875.16
2019-02-26T15:47:09.193Z,94876.52
2019-02-26T15:49:44.540Z,94882.24
2019-02-26T15:52:12.476Z,94878.24
2019-02-26T15:54:40.322Z,94876.92
2019-02-26T15:57:08.192Z,94881.80
2019-02-26T15:59:36.540Z,94881.30
2019-02-26T16:02:04.804Z,94877.86
2019-02-26T16:04:33.340Z,94883.99
2019-02-26T16:07:01.873Z,94889.05
2019-02-26T16:09:30.528Z,94884.71
2019-02-26T16:11:58.098Z,94886.77
2019-02-26T16:14:26.365Z,94880.78
2019-02-26T16:16:55.055Z,94885.82
2019-02-26T16:19:23.906Z,94883.80
2019-02-26T16:21:52.428Z,94888.62
2019-02-26T16:24:21.137Z,94894.94
2019-02-26T16:26:49.415Z,94890.98
2019-02-26T16:29:18.798Z,94889.20
2019-02-26T16:31:47.817Z,94889.32
2019-02-26T16:34:17.483Z,94896.41
2019-02-26T16:36:56.331Z,94899.04
2019-02-26T16:43:06.561Z,94898.47
2019-02-26T16:45:46.423Z,94899.36
2019-02-26T16:50:54.089Z,94905.25
2019-02-26T16:54:04.767Z,94906.39
2019-02-26T16:56:42.808Z,94910.48
2019-02-26T16:59:11.381Z,94914.28
2019-02-26T17:01:41.569Z,94910.09
2019-02-26T17:04:10.127Z,94911.02
2019-02-26T17:06:38.479Z,94911.07
2019-02-26T17:09:07.691Z,94913.66
2019-02-26T17:11:35.954Z,94919.13
2019-02-26T17:14:04.655Z,94918.53
2019-02-26T17:16:32.636Z,94925.64
2019-02-26T17:19:00.812Z,94925.83
2019-02-26T17:21:30.674Z,94927.70
2019-02-26T17:23:58.443Z,94924.44
2019-02-26T17:26:26.364Z,94931.39
2019-02-26T17:28:54.998Z,94931.05
2019-02-26T17:31:22.541Z,94929.86
2019-02-26T17:33:51.124Z,94934.19
2019-02-26T17:36:19.808Z,94942.34
2019-02-26T17:38:51.544Z,94942.42
2019-02-26T17:41:17.944Z,94946.73
2019-02-26T17:43:46.183Z,94947.63
2019-02-26T17:46:14.652Z,94945.98
2019-02-26T17:48:43.874Z,94946.47
2019-02-26T17:51:12.528Z,94949.48
2019-02-26T17:53:41.015Z,94945.70
2019-02-26T17:56:09.378Z,94941.47
2019-02-26T17:58:37.315Z,94940.64
2019-02-26T18:01:06.109Z,94943.23
2019-02-26T18:03:34.340Z,94952.17
2019-02-26T18:06:02.999Z,94947.50
2019-02-26T18:08:31.344Z,94949.23
2019-02-26T18:10:59.314Z,94951.75
2019-02-26T18:13:27.647Z,94952.61
2019-02-26T18:15:56.973Z,94955.16
2019-02-26T18:18:34.257Z,94955.16
2019-02-26T18:21:11.094Z,94948.79
2019-02-26T18:23:38.696Z,94951.77
2019-02-26T18:26:07.069Z,94955.99
2019-02-26T18:28:36.789Z,94956.83
2019-02-26T18:31:05.691Z,94954.69
2019-02-26T18:33:36.205Z,94957.66
2019-02-26T18:36:11.356Z,94957.64
2019-02-26T18:38:40.068Z,94953.82
2019-02-26T18:44:10.358Z,94954.63
2019-02-26T18:46:39.182Z,94948.69
2019-02-26T18:49:07.424Z,94949.11
2019-02-26T18:51:36.495Z,94946.55
2019-02-26T18:54:05.189Z,94945.28
2019-02-26T18:56:36.350Z,94952.92
2019-02-26T18:59:10.279Z,94949.96
2019-02-26T19:01:38.994Z,94948.27
2019-02-26T19:04:07.164Z,94951.64
2019-02-26T19:06:35.797Z,94947.81
2019-02-26T19:12:25.559Z,94949.52
2019-02-26T19:14:53.894Z,94943.98
2019-02-26T19:17:21.937Z,94946.06
2019-02-26T19:19:50.635Z,94946.47
2019-02-26T19:22:18.566Z,94942.20
2019-02-26T19:24:46.739Z,94940.91
2019-02-26T19:27:16.874Z,94946.81
2019-02-26T19:29:52.724Z,94951.89
2019-02-26T19:32:21.296Z,94956.10
2019-02-26T19:34:49.561Z,94951.44
2019-02-26T19:37:19.120Z,94953.55
2019-02-26T19:39:47.914Z,94949.72
2019-02-26T19:42:17.544Z,94956.06
2019-02-26T19:45:33.014Z,94948.42
2019-02-26T19:48:09.846Z,94952.66
2019-02-26T19:50:38.030Z,94951.38
2019-02-26T19:53:06.730Z,94950.91
2019-02-26T19:55:36.078Z,94958.05
2019-02-26T19:58:06.803Z,94959.28
2019-02-26T20:00:41.380Z,94949.56
2019-02-26T20:03:09.384Z,94954.58
2019-02-26T20:05:37.462Z,94952.44
2019-02-26T20:08:06.098Z,94952.77
2019-02-26T20:10:49.129Z,94946.84
2019-02-26T20:13:23.036Z,94948.55
2019-02-26T20:19:12.468Z,94943.38
2019-02-26T20:21:41.231Z,94942.44
2019-02-26T20:24:09.940Z,94944.95
2019-02-26T20:26:37.979Z,94941.48
2019-02-26T20:29:07.764Z,94940.98
2019-02-26T20:31:44.177Z,94946.39
2019-02-26T20:34:24.432Z,94940.84
2019-02-26T20:37:12.136Z,94939.50
2019-02-26T20:39:52.244Z,94934.75
2019-02-26T20:45:30.090Z,94933.45
2019-02-26T20:51:01.250Z,94932.58
2019-02-26T20:53:30.614Z,94933.39
2019-02-26T20:55:59.036Z,94931.70
2019-02-26T20:58:27.624Z,94928.18
2019-02-26T21:00:58.619Z,94923.53
2019-02-26T21:03:33.194Z,94930.78
2019-02-26T21:06:01.098Z,94926.48
2019-02-26T21:08:30.965Z,94923.53
2019-02-26T21:11:48.814Z,94926.88
2019-02-26T21:14:38.674Z,94923.59
2019-02-26T21:17:13.425Z,94921.48
2019-02-26T21:20:01.100Z,94915.50
2019-02-26T21:23:10.445Z,94920.92
2019-02-26T21:25:58.577Z,94917.05
2019-02-26T21:31:29.470Z,94918.13
2019-02-26T21:34:17.326Z,94918.37
2019-02-26T21:40:04.716Z,94919.75
2019-02-26T21:42:53.006Z,94917.91
2019-02-26T21:45:20.902Z,94917.74
2019-02-26T21:48:08.819Z,94907.90
2019-02-26T21:50:48.752Z,94910.81
2019-02-26T21:53:17.259Z,94908.62
2019-02-26T21:55:45.223Z,94909.17
2019-02-26T21:58:56.961Z,94913.48
2019-02-26T22:01:47.036Z,94913.44
2019-02-26T22:04:16.533Z,94915.92
2019-02-26T22:10:07.089Z,94917.82
2019-02-26T22:13:02.981Z,94917.78
2019-02-26T22:15:50.661Z,94911.77
2019-02-26T22:18:38.251Z,94921.30
2019-02-26T22:21:06.111Z,94920.07
2019-02-26T22:23:34.322Z,94911.86
2019-02-26T22:26:14.049Z,94918.42
2019-02-26T22:28:42.672Z,94920.42
2019-02-26T22:31:10.602Z,94918.69
2019-02-26T22:33:40.723Z,94926.13
2019-02-26T22:36:15.418Z,94921.84
2019-02-26T22:39:14.845Z,94920.28
2019-02-26T22:44:45.020Z,94913.53
2019-02-26T22:47:13.655Z,94903.73
2019-02-26T22:49:53.771Z,94906.31
2019-02-26T22:52:30.658Z,94905.50
2019-02-26T22:55:03.799Z,94902.97
2019-02-26T22:57:32.378Z,94902.83
2019-02-26T23:00:00.764Z,94900.66
2019-02-26T23:05:30.535Z,94892.23
2019-02-26T23:08:39.165Z,94892.28
2019-02-26T23:14:27.345Z,94892.30
2019-02-26T23:16:55.924Z,94887.13
2019-02-26T23:19:23.801Z,94892.55
2019-02-26T23:21:52.264Z,94899.08
2019-02-26T23:24:20.873Z,94895.16
2019-02-26T23:26:49.081Z,94903.19
2019-02-26T23:29:17.651Z,94906.33
2019-02-26T23:31:45.199Z,94908.38
2019-02-26T23:34:13.397Z,94898.45
2019-02-26T23:36:41.594Z,94904.64
2019-02-26T23:42:11.540Z,94907.82
2019-02-26T23:44:39.844Z,94910.77
2019-02-26T23:47:07.750Z,94909.95
2019-02-26T23:49:35.700Z,94909.02
2019-02-26T23:52:03.895Z,94914.81
2019-02-26T23:54:32.171Z,94907.95
2019-02-26T23:57:00.784Z,94914.72
2019-02-26T23:59:29.035Z,94907.20
